Time;durP1;ratioP1;P1;durP2;ratioP2;P2;SDS_P1;SDS_P2;PMS_P1;PMS_P2;Temp;Humidity;BMP_temperature;BMP_pressure;BME280_temperature;BME280_humidity;BME280_pressure;Samples;Min_cycle;Max_cycle;Signal;HPM_P1;HPM_P2
2022/09/30 00:00:51;;;;;;;16.13;11.77;;;;;;;5.87;99.79;100605.69;5269125;28;20025;-76
2022/09/30 00:03:23;;;;;;;15.73;12.47;;;;;;;5.76;99.89;100609.06;5269904;28;20039;-76
2022/09/30 00:05:56;;;;;;;16.33;11.70;;;;;;;5.71;100.00;100615.94;5270255;28;20417;-76
2022/09/30 00:08:27;;;;;;;15.27;12.57;;;;;;;5.71;100.00;100621.13;5269392;28;20036;-76
2022/09/30 00:11:15;;;;;;;15.90;11.77;;;;;;;5.70;100.00;100624.59;5269600;28;20025;-76
2022/09/30 00:13:49;;;;;;;12.13;10.35;;;;;;;5.59;99.99;100621.09;5269570;28;20032;-76
2022/09/30 00:16:22;;;;;;;19.05;12.50;;;;;;;5.63;100.00;100627.97;5269719;28;20045;-75
2022/09/30 00:18:56;;;;;;;16.60;11.65;;;;;;;5.63;100.00;100633.16;5268922;28;20028;-76
2022/09/30 00:21:27;;;;;;;13.85;11.43;;;;;;;5.59;100.00;100631.44;5269261;28;20033;-76
2022/09/30 00:24:00;;;;;;;14.13;11.77;;;;;;;5.51;100.00;100630.53;5269239;28;20032;-77
2022/09/30 00:26:34;;;;;;;16.95;11.85;;;;;;;5.48;100.00;100634.81;5269096;28;20455;-76
2022/09/30 00:29:05;;;;;;;14.35;10.55;;;;;;;5.43;100.00;100633.91;5269525;28;20095;-76
2022/09/30 00:31:37;;;;;;;16.33;11.33;;;;;;;5.38;100.00;100627.88;5267347;28;20060;-76
2022/09/30 00:34:10;;;;;;;14.98;10.43;;;;;;;5.37;100.00;100620.94;5269004;28;20486;-76
2022/09/30 00:36:44;;;;;;;17.25;11.40;;;;;;;5.38;100.00;100630.44;5269235;28;20429;-76
2022/09/30 00:39:26;;;;;;;12.38;10.35;;;;;;;5.46;100.00;100626.19;5268915;28;20119;-76
2022/09/30 00:42:00;;;;;;;11.38;9.95;;;;;;;5.51;100.00;100630.53;5269149;28;20029;-76
2022/09/30 00:44:52;;;;;;;15.27;10.65;;;;;;;5.30;100.00;100630.41;5269514;28;20024;-76
2022/09/30 00:47:44;;;;;;;16.45;10.13;;;;;;;5.32;100.00;100633.00;5269320;28;20072;-76
2022/09/30 00:50:37;;;;;;;14.25;10.40;;;;;;;5.27;100.00;100625.19;5269521;28;20037;-76
2022/09/30 00:53:15;;;;;;;13.73;10.35;;;;;;;5.19;100.00;100632.03;5268931;28;20082;-76
2022/09/30 00:56:03;;;;;;;15.32;9.15;;;;;;;5.22;100.00;100623.47;5265293;28;20427;-76
2022/09/30 00:58:55;;;;;;;15.23;9.15;;;;;;;5.18;100.00;100632.03;5265531;28;20033;-75
2022/09/30 01:01:27;;;;;;;15.82;9.38;;;;;;;5.20;100.00;100632.91;5265916;28;20031;-76
2022/09/30 01:04:03;;;;;;;11.67;9.73;;;;;;;5.18;100.00;100629.44;5265495;28;20029;-76
2022/09/30 01:06:35;;;;;;;11.43;9.40;;;;;;;5.18;100.00;100624.28;5265635;28;20040;-76
2022/09/30 01:09:07;;;;;;;14.68;10.30;;;;;;;5.10;100.00;100627.69;5265335;28;20037;-76
2022/09/30 01:11:39;;;;;;;16.08;10.65;;;;;;;5.07;100.00;100626.78;5265142;28;20029;-76
2022/09/30 01:14:16;;;;;;;12.23;9.87;;;;;;;5.04;100.00;100625.06;5265417;28;20033;-77
2022/09/30 01:16:53;;;;;;;12.82;9.73;;;;;;;5.01;100.00;100629.34;5265818;28;20040;-76
2022/09/30 01:20:12;;;;;;;13.65;9.20;;;;;;;4.97;100.00;100625.00;5265482;28;20038;-76
2022/09/30 01:23:05;;;;;;;10.48;9.35;;;;;;;4.99;100.00;100633.63;5180645;28;20043;-76
2022/09/30 01:26:07;;;;;;;12.68;9.27;;;;;;;4.89;100.00;100632.69;5263036;28;20064;-76
2022/09/30 01:28:44;;;;;;;13.38;9.50;;;;;;;4.89;100.00;100635.25;5265282;28;20041;-76
2022/09/30 01:31:36;;;;;;;12.85;8.88;;;;;;;4.82;100.00;100634.34;5265860;28;20029;-76
2022/09/30 01:34:26;;;;;;;14.80;9.73;;;;;;;4.85;100.00;100636.09;5250559;28;20041;-76
2022/09/30 01:37:09;;;;;;;15.75;9.45;;;;;;;4.93;100.00;100629.28;5264164;28;20456;-75
2022/09/30 01:39:52;;;;;;;10.65;8.88;;;;;;;4.84;100.00;100629.19;5264685;28;20056;-75
2022/09/30 01:42:36;;;;;;;11.25;9.95;;;;;;;4.69;100.00;100620.47;5264977;28;20025;-75
2022/09/30 01:45:27;;;;;;;13.70;9.35;;;;;;;4.69;100.00;100633.38;5270849;28;20559;-75
2022/09/30 01:48:19;;;;;;;13.93;9.57;;;;;;;4.68;100.00;100636.81;5271406;28;20032;-74
2022/09/30 01:51:06;;;;;;;10.52;9.20;;;;;;;4.73;100.00;100634.25;5264639;28;20032;-74
2022/09/30 01:53:45;;;;;;;12.32;8.70;;;;;;;4.67;100.00;100632.50;5264771;28;20036;-75
2022/09/30 01:56:24;;;;;;;10.32;9.07;;;;;;;4.73;100.00;100622.25;5264734;28;20021;-75
2022/09/30 01:58:58;;;;;;;13.32;9.57;;;;;;;4.71;100.00;100623.06;5264531;28;20460;-75
2022/09/30 02:01:38;;;;;;;13.50;9.20;;;;;;;4.71;100.00;100629.09;5264361;28;20033;-75
2022/09/30 02:04:18;;;;;;;13.38;8.93;;;;;;;4.59;100.00;100635.84;5264270;28;20132;-74
2022/09/30 02:06:57;;;;;;;13.00;8.93;;;;;;;4.65;100.00;100638.50;5264288;28;20025;-75
2022/09/30 02:09:36;;;;;;;14.15;9.23;;;;;;;4.55;100.00;100622.91;5264259;28;20028;-75
2022/09/30 02:12:13;;;;;;;11.63;9.60;;;;;;;4.51;100.00;100631.50;5263724;28;20427;-74
2022/09/30 02:14:50;;;;;;;11.75;9.65;;;;;;;4.49;100.00;100632.31;5262790;28;20155;-74
2022/09/30 02:17:28;;;;;;;11.35;10.10;;;;;;;4.50;100.00;100637.50;5264083;28;20445;-74
2022/09/30 02:20:06;;;;;;;11.73;9.45;;;;;;;4.45;100.00;100631.44;5263623;28;20488;-74
2022/09/30 02:22:43;;;;;;;15.48;9.30;;;;;;;4.44;100.00;100632.28;5264224;28;20037;-74
2022/09/30 02:25:24;;;;;;;11.82;10.18;;;;;;;4.33;100.00;100633.88;5263788;28;20039;-74
2022/09/30 02:28:02;;;;;;;13.88;10.88;;;;;;;4.32;100.00;100634.75;5264078;28;20120;-74
2022/09/30 02:30:41;;;;;;;13.75;10.57;;;;;;;4.36;100.00;100646.81;5263733;28;20061;-75
2022/09/30 02:33:19;;;;;;;11.80;9.75;;;;;;;4.37;100.00;100645.97;5263724;28;20025;-75
2022/09/30 02:35:56;;;;;;;11.95;10.57;;;;;;;4.39;100.00;100644.28;5263508;28;20074;-75
2022/09/30 02:38:36;;;;;;;18.33;10.00;;;;;;;4.38;100.00;100646.00;5263663;28;20444;-75
2022/09/30 02:41:14;;;;;;;14.50;10.02;;;;;;;4.31;100.00;100638.16;5263913;28;20036;-75
2022/09/30 02:43:45;;;;;;;15.38;11.18;;;;;;;4.29;100.00;100634.72;5266936;28;20029;-75
2022/09/30 02:46:16;;;;;;;11.47;10.27;;;;;;;4.32;100.00;100642.50;5271753;28;20059;-75
2022/09/30 02:48:47;;;;;;;11.03;9.90;;;;;;;4.37;100.00;100636.50;5268814;28;20114;-75
2022/09/30 02:51:42;;;;;;;13.40;9.67;;;;;;;4.31;100.00;100633.88;5263663;28;20035;-75
2022/09/30 02:54:21;;;;;;;12.52;10.85;;;;;;;4.23;100.00;100638.06;5263365;28;20074;-75
2022/09/30 02:56:58;;;;;;;14.95;10.73;;;;;;;4.28;100.00;100641.59;5263490;28;20115;-75
2022/09/30 02:59:30;;;;;;;16.40;11.18;;;;;;;4.22;100.00;100640.66;5263800;28;20098;-75
2022/09/30 03:02:01;;;;;;;14.13;11.17;;;;;;;4.24;100.00;100636.38;5263197;28;20033;-75
2022/09/30 03:04:35;;;;;;;14.40;11.53;;;;;;;4.19;100.00;100638.91;5263519;28;20073;-75
2022/09/30 03:07:07;;;;;;;14.68;12.93;;;;;;;4.21;100.00;100639.78;5263142;28;20079;-75
2022/09/30 03:09:38;;;;;;;14.87;11.47;;;;;;;4.18;100.00;100634.59;5263723;28;20069;-75
2022/09/30 03:12:24;;;;;;;15.60;11.67;;;;;;;4.09;100.00;100639.63;5262786;28;20040;-75
2022/09/30 03:15:35;;;;;;;14.75;12.18;;;;;;;4.14;100.00;100645.75;5263659;28;20193;-75
2022/09/30 03:18:22;;;;;;;17.63;13.18;;;;;;;4.17;100.00;100648.31;5262780;28;20078;-75
2022/09/30 03:21:08;;;;;;;22.42;13.98;;;;;;;4.06;100.00;100644.75;5262927;28;20024;-75
2022/09/30 03:24:21;;;;;;;16.65;11.30;;;;;;;3.98;100.00;100639.53;5263721;28;20033;-75
2022/09/30 03:27:07;;;;;;;14.05;12.15;;;;;;;3.98;100.00;100652.44;5263047;28;20025;-74
2022/09/30 03:29:57;;;;;;;15.63;12.15;;;;;;;3.95;100.00;100650.66;5261965;28;20036;-75
2022/09/30 03:32:28;;;;;;;16.25;12.70;;;;;;;3.93;100.00;100654.06;5262721;28;20044;-75
2022/09/30 03:35:08;;;;;;;15.47;13.20;;;;;;;3.98;100.00;100649.84;5262241;28;20380;-75
2022/09/30 03:37:55;;;;;;;16.25;13.52;;;;;;;3.99;100.00;100652.47;5262614;28;20143;-75
2022/09/30 03:40:30;;;;;;;16.52;14.68;;;;;;;3.91;100.00;100643.75;5262709;28;20082;-74
2022/09/30 03:43:08;;;;;;;18.38;15.63;;;;;;;3.93;100.00;100646.31;5262909;28;20029;-74
2022/09/30 03:45:49;;;;;;;19.02;17.02;;;;;;;3.94;100.00;100650.66;5269490;28;20029;-74
2022/09/30 03:48:23;;;;;;;18.55;16.13;;;;;;;3.86;100.00;100657.44;5272648;28;20049;-74
2022/09/30 03:50:55;;;;;;;18.80;16.77;;;;;;;3.90;100.00;100664.38;5262877;28;20099;-75
2022/09/30 03:53:27;;;;;;;17.58;15.73;;;;;;;3.87;100.00;100661.75;5262564;28;20025;-75
2022/09/30 03:55:58;;;;;;;17.60;15.63;;;;;;;3.87;100.00;100665.19;5262659;28;20098;-75
2022/09/30 03:58:30;;;;;;;19.03;16.80;;;;;;;3.88;100.00;100669.50;5262434;28;20029;-75
2022/09/30 04:01:01;;;;;;;19.43;16.20;;;;;;;3.88;100.00;100673.78;5262492;28;20111;-75
2022/09/30 04:03:34;;;;;;;19.77;16.93;;;;;;;3.80;100.00;100686.56;5262463;28;20029;-75
2022/09/30 04:06:11;;;;;;;18.08;16.23;;;;;;;3.79;100.00;100679.69;5262921;28;20021;-75
2022/09/30 04:08:43;;;;;;;20.23;15.15;;;;;;;3.75;100.00;100677.91;5262402;28;20102;-75
2022/09/30 04:11:15;;;;;;;18.67;16.67;;;;;;;3.77;100.00;100681.41;5262375;28;20468;-75
2022/09/30 04:13:46;;;;;;;19.10;17.10;;;;;;;3.75;100.00;100683.94;5262116;28;20033;-75
2022/09/30 04:16:17;;;;;;;22.13;18.60;;;;;;;3.67;100.00;100689.84;5260997;28;20704;-76
2022/09/30 04:18:49;;;;;;;23.43;19.60;;;;;;;3.69;100.00;100704.50;5262359;28;20071;-75
2022/09/30 04:21:21;;;;;;;19.83;17.83;;;;;;;3.73;100.00;100711.41;5262400;28;20108;-75
2022/09/30 04:23:53;;;;;;;20.38;18.27;;;;;;;3.68;100.00;100713.06;5262309;28;20463;-75
2022/09/30 04:26:25;;;;;;;19.10;17.20;;;;;;;3.67;100.00;100726.81;5261875;28;20048;-75
2022/09/30 04:28:57;;;;;;;20.60;18.40;;;;;;;3.65;100.00;100726.78;5262251;28;20060;-75
2022/09/30 04:31:28;;;;;;;19.50;17.42;;;;;;;3.63;100.00;100727.59;5265044;28;20033;-75
2022/09/30 04:34:00;;;;;;;18.53;16.60;;;;;;;3.61;100.00;100729.28;5266398;28;20464;-74
2022/09/30 04:36:31;;;;;;;20.20;17.83;;;;;;;3.59;100.00;100729.28;5265384;28;20029;-75
2022/09/30 04:39:03;;;;;;;21.60;17.93;;;;;;;3.56;100.00;100718.91;5266025;28;20064;-75
2022/09/30 04:41:35;;;;;;;22.87;19.03;;;;;;;3.56;100.00;100718.03;5264812;28;20059;-75
2022/09/30 04:44:06;;;;;;;22.03;19.70;;;;;;;3.57;100.00;100715.47;5265883;28;20275;-75
2022/09/30 04:46:38;;;;;;;20.30;18.30;;;;;;;3.56;100.00;100720.59;5266116;28;20025;-75
2022/09/30 04:49:09;;;;;;;21.77;19.47;;;;;;;3.51;100.00;100733.44;5265816;28;20033;-75
2022/09/30 04:51:44;;;;;;;22.97;20.17;;;;;;;3.53;100.00;100733.47;5264774;28;20175;-75
2022/09/30 04:54:16;;;;;;;20.48;18.27;;;;;;;3.50;100.00;100731.69;5265765;28;20033;-75
2022/09/30 04:56:47;;;;;;;22.07;18.73;;;;;;;3.50;100.00;100739.44;5265411;28;20486;-75
2022/09/30 04:59:19;;;;;;;20.37;18.27;;;;;;;3.45;100.00;100741.06;5265933;28;20417;-74
2022/09/30 05:01:50;;;;;;;22.33;19.07;;;;;;;3.42;100.00;100744.47;5265973;28;20044;-75
2022/09/30 05:04:21;;;;;;;23.40;20.73;;;;;;;3.42;100.00;100743.59;5265309;28;20037;-75
2022/09/30 05:06:53;;;;;;;22.30;19.47;;;;;;;3.42;100.00;100752.19;5265820;28;20373;-75
2022/09/30 05:09:24;;;;;;;22.37;19.63;;;;;;;3.42;100.00;100756.50;5265551;28;20130;-75
2022/09/30 05:11:55;;;;;;;21.47;19.17;;;;;;;3.42;100.00;100751.34;5265370;28;20068;-75
2022/09/30 05:14:27;;;;;;;26.30;20.33;;;;;;;3.38;100.00;100753.00;5265034;28;20056;-75
2022/09/30 05:16:58;;;;;;;21.87;19.53;;;;;;;3.37;100.00;100756.41;5263792;28;20060;-75
2022/09/30 05:19:29;;;;;;;21.70;19.50;;;;;;;3.37;100.00;100753.84;5264983;28;20481;-75
2022/09/30 05:22:01;;;;;;;25.23;20.53;;;;;;;3.31;100.00;100758.88;5264982;28;20119;-75
2022/09/30 05:24:32;;;;;;;25.33;21.20;;;;;;;3.32;100.00;100765.78;5265092;28;20029;-75
2022/09/30 05:27:03;;;;;;;26.73;21.00;;;;;;;3.29;100.00;100766.59;5264923;28;20044;-75
2022/09/30 05:29:35;;;;;;;23.77;20.20;;;;;;;3.32;100.00;100763.19;5265136;28;20136;-75
2022/09/30 05:32:06;;;;;;;22.80;20.40;;;;;;;3.33;100.00;100764.06;5264993;28;20499;-74
2022/09/30 05:34:38;;;;;;;30.17;23.27;;;;;;;3.25;100.00;100757.09;5264967;28;20386;-75
2022/09/30 05:37:09;;;;;;;26.63;23.83;;;;;;;3.35;100.00;100759.78;5264804;28;20025;-75
2022/09/30 05:39:41;;;;;;;26.30;23.40;;;;;;;3.35;100.00;100762.38;5264766;28;20376;-75
2022/09/30 05:42:12;;;;;;;29.23;24.83;;;;;;;3.39;100.00;100772.75;5264195;28;20444;-75
2022/09/30 05:44:45;;;;;;;25.03;22.47;;;;;;;3.36;100.00;100783.00;5267690;28;20494;-76
2022/09/30 05:47:16;;;;;;;27.08;22.52;;;;;;;3.40;100.00;100789.97;5276579;28;20156;-75
2022/09/30 05:49:48;;;;;;;32.53;24.07;;;;;;;3.41;100.00;100798.53;5269285;28;20521;-75
2022/09/30 05:52:19;;;;;;;29.70;24.83;;;;;;;3.38;100.00;100801.06;5265525;28;20055;-76
2022/09/30 05:54:50;;;;;;;26.77;24.03;;;;;;;3.44;100.00;100807.19;5263593;28;20033;-75
2022/09/30 05:57:22;;;;;;;27.90;24.70;;;;;;;3.45;100.00;100806.34;5264244;28;20388;-76
2022/09/30 05:59:55;;;;;;;32.57;25.10;;;;;;;3.49;100.00;100799.53;5264508;28;20037;-76
2022/09/30 06:02:27;;;;;;;28.95;24.98;;;;;;;3.55;100.00;100803.94;5264109;28;20071;-76
2022/09/30 06:04:58;;;;;;;30.93;25.57;;;;;;;3.63;100.00;100810.09;5263915;28;20070;-76
2022/09/30 06:07:30;;;;;;;30.93;24.53;;;;;;;3.65;100.00;100817.00;5263815;28;20029;-76
2022/09/30 06:10:08;;;;;;;33.70;28.13;;;;;;;3.74;100.00;100820.56;5264048;28;20105;-76
2022/09/30 06:12:39;;;;;;;33.15;28.35;;;;;;;3.92;100.00;100822.56;5263947;28;20086;-75
2022/09/30 06:15:10;;;;;;;32.87;26.87;;;;;;;3.88;100.00;100819.06;5263795;28;20079;-76
2022/09/30 06:17:42;;;;;;;30.07;26.70;;;;;;;3.93;100.00;100830.31;5263815;28;20033;-75
2022/09/30 06:20:13;;;;;;;35.10;26.97;;;;;;;3.95;100.00;100825.19;5263992;28;20116;-75
2022/09/30 06:22:45;;;;;;;31.07;27.23;;;;;;;4.05;100.00;100827.06;5263643;28;20061;-76
2022/09/30 06:25:16;;;;;;;33.37;29.87;;;;;;;4.15;100.00;100833.22;5263364;28;20035;-76
2022/09/30 06:27:49;;;;;;;30.20;27.07;;;;;;;4.19;100.00;100830.69;5263760;28;20341;-76
2022/09/30 06:30:20;;;;;;;32.65;28.05;;;;;;;4.24;100.00;100829.91;5263959;28;20179;-76
2022/09/30 06:32:55;;;;;;;39.40;30.00;;;;;;;4.41;100.00;100837.88;5263968;28;20117;-76
2022/09/30 06:35:27;;;;;;;32.47;28.98;;;;;;;4.49;100.00;100846.56;5263811;28;20037;-76
2022/09/30 06:37:58;;;;;;;35.00;30.45;;;;;;;4.56;100.00;100836.34;5263081;28;20033;-76
2022/09/30 06:40:30;;;;;;;32.27;28.87;;;;;;;4.62;100.00;100840.75;5263239;28;20029;-75
2022/09/30 06:43:02;;;;;;;35.47;29.20;;;;;;;4.67;100.00;100830.44;5263186;28;20498;-76
2022/09/30 06:45:34;;;;;;;36.13;31.88;;;;;;;4.73;100.00;100821.06;5263694;28;20054;-76
2022/09/30 06:48:08;;;;;;;36.87;31.03;;;;;;;4.78;100.00;100821.09;5265011;28;20466;-74
2022/09/30 06:50:41;;;;;;;34.63;30.50;;;;;;;4.87;100.00;100826.38;5263351;28;20267;-76
2022/09/30 06:53:12;;;;;;;36.05;32.13;;;;;;;4.93;100.00;100821.28;5261166;28;20029;-76
2022/09/30 06:55:44;;;;;;;37.53;32.37;;;;;;;5.01;100.00;100831.72;5262399;28;20033;-76
2022/09/30 06:58:15;;;;;;;42.80;34.07;;;;;;;5.11;100.00;100825.78;5262100;28;20037;-76
2022/09/30 07:00:59;;;;;;;39.40;34.47;;;;;;;5.23;100.00;100830.22;5262916;28;20384;-76
2022/09/30 07:03:34;;;;;;;38.70;33.97;;;;;;;5.33;100.00;100827.69;5263412;28;20361;-76
2022/09/30 07:06:06;;;;;;;47.40;36.70;;;;;;;5.40;100.00;100832.94;5262726;28;20025;-75
2022/09/30 07:08:38;;;;;;;43.33;36.93;;;;;;;5.51;100.00;100830.47;5262791;28;20028;-75
2022/09/30 07:11:13;;;;;;;42.47;37.40;;;;;;;5.60;100.00;100829.66;5263433;28;20029;-75
2022/09/30 07:13:46;;;;;;;44.10;36.22;;;;;;;5.76;100.00;100830.66;5263229;28;20029;-76
2022/09/30 07:16:20;;;;;;;45.45;37.85;;;;;;;5.89;100.00;100836.78;5261114;28;20136;-75
2022/09/30 07:18:51;;;;;;;48.47;39.55;;;;;;;6.00;100.00;100827.41;5262586;28;20028;-75
2022/09/30 07:21:22;;;;;;;50.10;40.83;;;;;;;6.12;100.00;100831.81;5262515;28;20128;-76
2022/09/30 07:23:55;;;;;;;43.67;38.87;;;;;;;6.24;100.00;100829.28;5262660;28;20032;-75
2022/09/30 07:26:27;;;;;;;45.00;37.97;;;;;;;6.31;100.00;100825.91;5262295;28;20037;-75
2022/09/30 07:28:59;;;;;;;45.50;38.10;;;;;;;6.45;100.00;100831.13;5263002;28;20048;-75
2022/09/30 07:31:30;;;;;;;46.13;38.63;;;;;;;6.59;100.00;100830.34;5262385;28;20025;-76
2022/09/30 07:34:07;;;;;;;46.53;37.20;;;;;;;6.69;100.00;100832.97;5262207;28;20351;-75
2022/09/30 07:36:40;;;;;;;46.30;38.13;;;;;;;6.82;100.00;100846.81;5262328;28;20110;-75
2022/09/30 07:39:11;;;;;;;41.97;33.00;;;;;;;6.90;100.00;100852.03;5262862;28;20040;-75
2022/09/30 07:41:44;;;;;;;36.90;32.87;;;;;;;7.02;100.00;100846.91;5262047;28;20037;-75
2022/09/30 07:44:15;;;;;;;36.33;31.50;;;;;;;7.11;100.00;100843.47;5262990;28;20055;-75
2022/09/30 07:46:46;;;;;;;36.00;29.90;;;;;;;7.32;100.00;100854.75;5262771;28;20041;-75
2022/09/30 07:49:23;;;;;;;36.13;30.83;;;;;;;7.43;100.00;100853.88;5263239;28;20036;-75
2022/09/30 07:51:57;;;;;;;32.78;28.08;;;;;;;7.46;100.00;100846.09;5262101;28;20064;-75
2022/09/30 07:54:31;;;;;;;31.60;26.63;;;;;;;7.59;100.00;100836.59;5262204;28;20067;-76
2022/09/30 07:57:03;;;;;;;28.50;25.50;;;;;;;7.71;100.00;100840.06;5262160;28;20021;-75
2022/09/30 07:59:39;;;;;;;30.17;26.55;;;;;;;7.80;100.00;100842.66;5244456;28;20129;-74
2022/09/30 08:02:16;;;;;;;28.40;24.90;;;;;;;7.96;100.00;100852.16;5262104;28;20029;-75
2022/09/30 08:04:47;;;;;;;28.90;25.80;;;;;;;8.13;100.00;100846.06;5262379;28;20036;-75
2022/09/30 08:07:18;;;;;;;34.90;27.17;;;;;;;8.21;100.00;100845.22;5266367;28;20029;-75
2022/09/30 08:09:50;;;;;;;30.07;24.63;;;;;;;8.37;100.00;100840.84;5266536;28;20033;-75
2022/09/30 08:12:21;;;;;;;29.13;26.13;;;;;;;8.55;100.00;100833.91;5266343;28;20036;-75
2022/09/30 08:14:52;;;;;;;30.33;25.33;;;;;;;8.68;100.00;100843.38;5266507;28;20136;-75
2022/09/30 08:17:24;;;;;;;28.93;25.87;;;;;;;8.68;100.00;100840.78;5265210;28;20083;-75
2022/09/30 08:19:55;;;;;;;29.80;26.63;;;;;;;8.73;100.00;100846.81;5266394;28;20041;-75
2022/09/30 08:22:27;;;;;;;28.90;25.83;;;;;;;8.97;100.00;100846.69;5266206;28;20064;-75
2022/09/30 08:24:58;;;;;;;29.13;26.23;;;;;;;9.00;100.00;100857.06;5266102;28;20056;-73
2022/09/30 08:27:29;;;;;;;31.83;26.63;;;;;;;9.15;100.00;100861.34;5266267;28;20029;-74
2022/09/30 08:30:01;;;;;;;31.27;26.73;;;;;;;9.24;100.00;100856.06;5265869;28;20037;-74
2022/09/30 08:32:32;;;;;;;32.93;27.43;;;;;;;9.33;100.00;100848.22;5264931;28;20025;-75
2022/09/30 08:35:04;;;;;;;27.27;23.77;;;;;;;9.38;100.00;100850.78;5281945;28;20025;-74
2022/09/30 08:37:35;;;;;;;27.38;24.40;;;;;;;9.57;100.00;100856.72;5265863;28;20083;-74
2022/09/30 08:40:22;;;;;;;25.30;22.40;;;;;;;9.60;100.00;100849.75;5264398;28;20112;-74
2022/09/30 08:42:58;;;;;;;26.75;23.83;;;;;;;9.84;100.00;100845.22;5266435;28;20052;-74
2022/09/30 08:45:45;;;;;;;24.67;21.85;;;;;;;9.85;100.00;100852.16;5265716;28;20112;-74
2022/09/30 08:48:20;;;;;;;22.90;20.58;;;;;;;10.01;100.00;100852.88;5265952;28;20036;-74
2022/09/30 08:51:19;;;;;;;23.13;20.67;;;;;;;10.16;99.37;100860.56;5265530;28;20032;-74
2022/09/30 08:53:52;;;;;;;22.67;20.25;;;;;;;10.41;99.35;100855.13;5265570;28;20040;-74
2022/09/30 08:56:27;;;;;;;22.77;20.38;;;;;;;10.63;97.19;100865.31;5265571;28;20033;-74
2022/09/30 08:59:01;;;;;;;22.38;20.10;;;;;;;11.04;98.42;100866.53;5265654;28;20032;-74
2022/09/30 09:01:40;;;;;;;22.75;18.85;;;;;;;11.35;96.53;100866.97;5265791;28;20464;-74
2022/09/30 09:04:12;;;;;;;21.10;16.58;;;;;;;11.64;93.35;100868.25;5265267;28;20029;-74
2022/09/30 09:06:53;;;;;;;;;;;;;;;11.95;91.26;100873.88;5265535;28;20116;-75
2022/09/30 09:09:49;;;;;;;17.08;15.38;;;;;;;12.07;91.62;100864.09;5265775;28;19913;-75
2022/09/30 09:13:03;;;;;;;19.02;16.17;;;;;;;12.53;90.75;100845.81;5264757;28;20035;-74
2022/09/30 09:16:10;;;;;;;17.20;15.40;;;;;;;12.97;88.29;100856.22;5265295;28;20435;-74
2022/09/30 09:19:14;;;;;;;15.10;13.50;;;;;;;13.24;85.25;100862.63;5263849;28;20043;-75
2022/09/30 09:21:56;;;;;;;15.88;14.18;;;;;;;13.66;84.04;100859.91;5259783;28;20041;-75
2022/09/30 09:24:44;;;;;;;13.32;11.93;;;;;;;14.20;83.34;100860.31;5264742;28;20032;-75
2022/09/30 09:27:15;;;;;;;12.73;10.90;;;;;;;14.58;78.24;100858.41;5265010;28;20039;-74
2022/09/30 09:30:06;;;;;;;12.33;11.13;;;;;;;14.92;78.80;100860.94;5265056;28;20033;-73
2022/09/30 09:32:38;;;;;;;13.05;11.68;;;;;;;14.74;76.08;100862.31;5264697;28;20029;-74
2022/09/30 09:35:32;;;;;;;17.00;10.77;;;;;;;15.06;76.33;100867.53;5263410;28;20036;-74
2022/09/30 09:38:34;;;;;;;9.43;8.50;;;;;;;15.49;74.87;100877.56;5264793;28;20346;-74
2022/09/30 09:41:11;;;;;;;10.60;8.77;;;;;;;15.89;73.77;100875.47;5264263;28;20047;-74
2022/09/30 09:44:01;;;;;;;11.55;10.18;;;;;;;15.78;71.17;100867.06;5264787;28;20033;-73
2022/09/30 09:47:04;;;;;;;10.18;9.18;;;;;;;16.12;70.77;100852.78;5264420;28;20114;-75
2022/09/30 09:49:38;;;;;;;12.43;9.77;;;;;;;16.36;70.21;100859.81;5264432;28;20037;-74
2022/09/30 09:52:10;;;;;;;9.93;7.78;;;;;;;16.91;68.57;100862.19;5263931;28;20031;-74
2022/09/30 09:54:55;;;;;;;9.70;8.73;;;;;;;17.26;67.01;100857.34;5264210;28;20524;-75
2022/09/30 09:57:31;;;;;;;9.02;7.75;;;;;;;17.52;62.73;100859.84;5264689;28;20025;-75
2022/09/30 10:03:10;;;;;;;12.20;6.80;;;;;;;17.56;63.94;100845.63;5264369;28;20473;-75
2022/09/30 10:05:42;;;;;;;9.52;7.15;;;;;;;17.91;63.67;100849.47;5264276;28;20033;-75
2022/09/30 10:08:18;;;;;;;9.90;8.00;;;;;;;18.51;64.21;100844.19;5264028;28;20040;-74
2022/09/30 10:10:56;;;;;;;6.82;5.97;;;;;;;18.90;61.33;100853.91;5264435;28;20029;-75
2022/09/30 10:13:41;;;;;;;7.60;6.13;;;;;;;18.94;58.81;100844.91;5264201;28;20038;-74
2022/09/30 10:16:36;;;;;;;9.02;5.40;;;;;;;18.83;58.56;100851.59;5264175;28;20045;-74
2022/09/30 10:19:21;;;;;;;6.95;5.40;;;;;;;19.41;60.99;100853.28;5263814;28;20037;-74
2022/09/30 10:22:08;;;;;;;6.80;5.50;;;;;;;19.53;56.05;100863.28;5263732;28;20112;-74
2022/09/30 10:24:39;;;;;;;7.68;5.03;;;;;;;19.76;53.69;100867.44;5264006;28;20031;-75
2022/09/30 10:27:33;;;;;;;6.60;5.30;;;;;;;20.08;52.58;100857.03;5263677;28;20028;-74
2022/09/30 10:30:04;;;;;;;7.22;5.40;;;;;;;20.20;52.52;100851.06;5264054;28;20037;-74
2022/09/30 10:32:36;;;;;;;6.40;5.25;;;;;;;20.35;50.65;100852.09;5263784;28;20037;-73
2022/09/30 10:35:22;;;;;;;6.77;4.80;;;;;;;20.53;50.86;100850.25;5263336;28;20062;-73
2022/09/30 10:37:55;;;;;;;6.00;4.68;;;;;;;20.79;49.65;100855.97;5263613;28;20158;-74
2022/09/30 10:40:28;;;;;;;6.18;4.20;;;;;;;21.11;50.38;100864.78;5263998;28;20032;-73
2022/09/30 10:43:00;;;;;;;6.63;5.05;;;;;;;21.43;48.05;100859.47;5263197;28;20025;-74
2022/09/30 10:45:35;;;;;;;7.18;4.75;;;;;;;22.04;45.05;100864.78;5263503;28;20029;-73
2022/09/30 10:48:17;;;;;;;5.50;4.32;;;;;;;22.45;45.48;100858.81;5261939;28;20486;-74
2022/09/30 10:50:54;;;;;;;8.15;3.90;;;;;;;21.72;45.17;100862.28;5262797;28;20044;-73
2022/09/30 10:53:29;;;;;;;5.50;3.45;;;;;;;22.82;43.22;100859.19;5263641;28;20078;-73
2022/09/30 10:56:00;;;;;;;5.78;3.55;;;;;;;22.82;42.74;100855.69;5263123;28;20032;-73
2022/09/30 10:58:50;;;;;;;3.58;3.25;;;;;;;23.70;43.58;100856.22;5263572;28;20036;-73
2022/09/30 11:01:43;;;;;;;5.45;2.90;;;;;;;24.26;38.78;100869.28;5263701;28;20031;-73
2022/09/30 11:04:31;;;;;;;3.88;2.60;;;;;;;24.19;40.22;100855.53;5262987;28;20036;-73
2022/09/30 11:07:14;;;;;;;4.07;2.40;;;;;;;24.10;38.70;100850.88;5262905;28;20057;-73
2022/09/30 11:10:21;;;;;;;3.47;2.30;;;;;;;23.54;39.10;100858.16;5262937;28;20352;-73
2022/09/30 11:13:00;;;;;;;3.28;2.25;;;;;;;22.59;39.88;100844.69;5262454;28;20067;-73
2022/09/30 11:15:38;;;;;;;5.07;2.40;;;;;;;21.30;41.57;100840.75;5262656;28;20464;-73
2022/09/30 11:18:21;;;;;;;4.07;2.35;;;;;;;21.21;43.13;100845.72;5262353;28;20056;-73
2022/09/30 11:21:03;;;;;;;4.63;2.70;;;;;;;20.27;45.48;100837.53;5262736;28;20025;-73
2022/09/30 11:23:40;;;;;;;5.30;2.92;;;;;;;20.63;46.42;100845.31;5263060;28;20079;-73
2022/09/30 11:26:18;;;;;;;4.78;2.70;;;;;;;20.43;44.08;100841.09;5262503;28;20424;-73
2022/09/30 11:29:08;;;;;;;5.10;3.00;;;;;;;21.23;44.14;100842.03;5262887;28;20045;-73
2022/09/30 11:31:54;;;;;;;2.95;2.40;;;;;;;22.38;41.59;100834.44;5262557;28;20029;-73
2022/09/30 11:34:35;;;;;;;5.43;2.97;;;;;;;22.53;41.88;100834.44;5262640;28;20120;-74
2022/09/30 11:37:28;;;;;;;3.72;2.58;;;;;;;22.80;39.45;100841.63;5262523;28;20029;-74
2022/09/30 11:40:00;;;;;;;3.75;2.47;;;;;;;21.82;39.86;100833.41;5261837;28;20373;-73
2022/09/30 11:42:36;;;;;;;5.00;2.53;;;;;;;19.55;44.47;100832.31;5261580;28;20029;-74
2022/09/30 11:45:33;;;;;;;4.32;2.63;;;;;;;20.57;43.97;100827.09;5262826;28;20445;-75
2022/09/30 11:48:30;;;;;;;4.10;2.60;;;;;;;21.64;43.87;100816.78;5262414;28;20029;-74
2022/09/30 11:51:07;;;;;;;3.47;3.00;;;;;;;22.32;41.17;100824.19;5262419;28;20037;-73
2022/09/30 11:54:08;;;;;;;7.88;3.10;;;;;;;23.54;40.58;100824.44;5261982;28;20044;-72
2022/09/30 11:56:47;;;;;;;3.47;2.80;;;;;;;24.37;37.80;100813.44;5262284;28;20079;-72
2022/09/30 11:59:27;;;;;;;5.72;2.70;;;;;;;24.22;37.42;100814.53;5262436;28;20380;-72
2022/09/30 12:02:03;;;;;;;3.50;2.40;;;;;;;24.23;36.06;100810.91;5261767;28;20032;-73
2022/09/30 12:04:38;;;;;;;4.35;2.47;;;;;;;25.83;35.88;100803.75;5262022;28;20044;-73